createdAt,value
2022-08-17T00:01:51.368Z,20.04
2022-08-17T00:04:20.277Z,20.01
2022-08-17T00:06:49.134Z,20.12
2022-08-17T00:09:18.959Z,20.26
2022-08-17T00:12:41.839Z,20.30
2022-08-17T00:14:35.021Z,20.48
2022-08-17T00:17:02.715Z,20.39
2022-08-17T00:19:29.959Z,20.29
2022-08-17T00:22:31.048Z,20.33
2022-08-17T00:24:47.019Z,20.50
2022-08-17T00:27:13.506Z,20.30
2022-08-17T00:29:40.088Z,20.38
2022-08-17T00:33:10.929Z,20.05
2022-08-17T00:34:53.404Z,20.02
2022-08-17T00:37:20.237Z,19.90
2022-08-17T00:39:46.795Z,19.95
2022-08-17T00:42:15.330Z,19.89
2022-08-17T00:44:41.885Z,19.80
2022-08-17T00:47:08.487Z,19.78
2022-08-17T00:49:35.026Z,19.91
2022-08-17T00:52:11.667Z,20.06
2022-08-17T00:54:41.798Z,19.88
2022-08-17T00:57:19.320Z,19.93
2022-08-17T01:00:03.228Z,19.82
2022-08-17T01:02:35.010Z,19.68
2022-08-17T01:05:10.868Z,19.70
2022-08-17T01:07:38.019Z,19.81
2022-08-17T01:10:06.668Z,19.85
2022-08-17T01:12:35.312Z,19.90
2022-08-17T01:15:05.086Z,19.84
2022-08-17T01:17:31.896Z,19.88
2022-08-17T01:19:58.579Z,19.74
2022-08-17T01:22:25.668Z,19.69
2022-08-17T01:25:01.825Z,19.65
2022-08-17T01:27:29.008Z,19.64
2022-08-17T01:29:59.437Z,19.66
2022-08-17T01:32:27.657Z,19.81
2022-08-17T01:34:54.603Z,20.01
2022-08-17T01:37:29.106Z,19.92
2022-08-17T01:40:13.620Z,19.97
2022-08-17T01:42:45.797Z,19.96
2022-08-17T01:45:17.563Z,19.91
2022-08-17T01:47:44.411Z,19.78
2022-08-17T01:50:15.881Z,19.70
2022-08-17T01:52:49.351Z,19.77
2022-08-17T01:55:18.103Z,19.71
2022-08-17T01:57:45.577Z,19.65
2022-08-17T02:00:13.227Z,19.73
2022-08-17T02:02:39.842Z,19.69
2022-08-17T02:05:07.714Z,19.60
2022-08-17T02:08:00.036Z,19.39
2022-08-17T02:10:23.457Z,19.34
2022-08-17T02:12:50.493Z,19.35
2022-08-17T02:15:17.187Z,19.35
2022-08-17T02:17:43.658Z,19.30
2022-08-17T02:20:10.729Z,19.01
2022-08-17T02:22:42.476Z,19.10
2022-08-17T02:25:10.273Z,19.29
2022-08-17T02:27:38.172Z,19.27
2022-08-17T02:30:58.943Z,19.23
2022-08-17T02:32:54.231Z,19.31
2022-08-17T02:35:24.072Z,19.40
2022-08-17T02:37:51.919Z,19.31
2022-08-17T02:40:35.811Z,19.45
2022-08-17T02:43:04.025Z,19.30
2022-08-17T02:45:30.591Z,19.41
2022-08-17T02:47:57.082Z,19.42
2022-08-17T02:50:24.579Z,19.37
2022-08-17T02:52:57.299Z,19.42
2022-08-17T02:55:34.280Z,19.47
2022-08-17T02:58:01.993Z,19.43
2022-08-17T03:00:34.168Z,19.42
2022-08-17T03:03:02.674Z,19.62
2022-08-17T03:05:30.970Z,19.47
2022-08-17T03:07:57.591Z,19.52
2022-08-17T03:10:25.569Z,19.55
2022-08-17T03:12:52.869Z,19.64
2022-08-17T03:15:26.122Z,19.36
2022-08-17T03:17:53.588Z,19.35
2022-08-17T03:20:21.009Z,19.19
2022-08-17T03:22:53.801Z,19.34
2022-08-17T03:25:29.913Z,18.99
2022-08-17T03:27:56.945Z,18.90
2022-08-17T03:30:25.251Z,18.88
2022-08-17T03:32:54.733Z,19.00
2022-08-17T03:35:24.330Z,19.10
2022-08-17T03:37:52.407Z,18.91
2022-08-17T03:40:34.367Z,19.11
2022-08-17T03:43:14.557Z,19.04
2022-08-17T03:46:01.577Z,19.11
2022-08-17T03:48:47.543Z,18.94
2022-08-17T03:51:36.456Z,19.08
2022-08-17T03:54:22.438Z,19.00
2022-08-17T03:57:04.038Z,18.93
2022-08-17T03:59:31.142Z,19.14
2022-08-17T04:02:07.434Z,19.40
2022-08-17T04:04:34.065Z,19.41
2022-08-17T04:07:00.580Z,19.25
2022-08-17T04:09:27.171Z,19.29
2022-08-17T04:11:54.386Z,19.26
2022-08-17T04:14:23.898Z,19.30
2022-08-17T04:16:50.422Z,19.29
2022-08-17T04:19:16.967Z,19.36
2022-08-17T04:21:43.459Z,19.48
2022-08-17T04:24:11.068Z,19.51
2022-08-17T04:26:53.937Z,19.67
2022-08-17T04:29:22.259Z,19.72
2022-08-17T04:31:48.878Z,19.87
2022-08-17T04:34:19.691Z,19.78
2022-08-17T04:36:50.093Z,19.80
2022-08-17T04:39:17.013Z,19.72
2022-08-17T04:42:01.953Z,19.72
2022-08-17T04:44:37.450Z,19.88
2022-08-17T04:47:05.169Z,20.07
2022-08-17T04:49:32.651Z,20.26
2022-08-17T04:52:04.366Z,20.27
2022-08-17T04:54:31.240Z,20.25
2022-08-17T04:56:57.717Z,20.34
2022-08-17T04:59:24.257Z,20.48
2022-08-17T05:01:52.010Z,20.42
2022-08-17T05:04:34.217Z,20.52
2022-08-17T05:07:02.169Z,20.60
2022-08-17T05:09:29.071Z,20.52
2022-08-17T05:12:01.465Z,20.52
2022-08-17T05:14:33.000Z,20.55
2022-08-17T05:17:00.277Z,20.72
2022-08-17T05:19:28.766Z,20.84
2022-08-17T05:21:55.265Z,20.80
2022-08-17T05:24:38.480Z,20.85
2022-08-17T05:27:06.526Z,20.94
2022-08-17T05:29:35.784Z,20.84
2022-08-17T05:32:39.692Z,20.77
2022-08-17T05:35:00.549Z,20.93
2022-08-17T05:37:27.926Z,20.86
2022-08-17T05:39:54.520Z,20.90
2022-08-17T05:42:21.638Z,20.77
2022-08-17T05:44:48.241Z,20.72
2022-08-17T05:47:14.810Z,21.03
2022-08-17T05:49:41.296Z,21.03
2022-08-17T05:52:22.433Z,20.96
2022-08-17T05:55:03.917Z,21.10
2022-08-17T05:57:39.545Z,21.05
2022-08-17T06:00:15.320Z,21.20
2022-08-17T06:03:07.586Z,21.17
2022-08-17T06:05:37.064Z,21.29
2022-08-17T06:08:42.471Z,21.38
2022-08-17T06:11:26.891Z,21.68
2022-08-17T06:14:49.581Z,21.88
2022-08-17T06:17:18.909Z,22.06
2022-08-17T06:20:01.766Z,21.91
2022-08-17T06:22:33.499Z,22.10
2022-08-17T06:25:10.014Z,22.45
2022-08-17T06:27:46.718Z,22.63
2022-08-17T06:30:21.418Z,22.60
2022-08-17T06:32:50.140Z,22.73
2022-08-17T06:35:32.038Z,22.63
2022-08-17T06:38:09.733Z,22.91
2022-08-17T06:41:09.465Z,23.31
2022-08-17T06:43:48.097Z,23.50
2022-08-17T06:46:29.917Z,23.80
2022-08-17T06:49:10.445Z,23.97
2022-08-17T06:52:45.629Z,24.10
2022-08-17T06:55:17.990Z,24.25
2022-08-17T06:57:57.565Z,24.30
2022-08-17T07:00:28.093Z,24.41
2022-08-17T07:03:20.921Z,24.54
2022-08-17T07:06:21.161Z,24.99
2022-08-17T07:09:01.102Z,24.91
2022-08-17T07:11:32.264Z,25.13
2022-08-17T07:14:29.304Z,25.15
2022-08-17T07:16:58.516Z,25.25
2022-08-17T07:19:27.776Z,25.62
2022-08-17T07:22:18.382Z,25.68
2022-08-17T07:24:57.165Z,25.87
2022-08-17T07:27:27.710Z,26.13
2022-08-17T07:30:10.303Z,26.27
2022-08-17T07:32:43.048Z,26.57
2022-08-17T07:35:20.011Z,26.60
2022-08-17T07:37:53.171Z,26.59
2022-08-17T07:40:21.473Z,26.49
2022-08-17T07:43:23.113Z,26.69
2022-08-17T07:46:14.260Z,26.62
2022-08-17T07:48:43.318Z,26.73
2022-08-17T07:51:28.865Z,27.03
2022-08-17T07:54:13.955Z,27.15
2022-08-17T07:57:00.543Z,27.25
2022-08-17T07:59:34.407Z,27.32
2022-08-17T08:02:15.691Z,27.65
2022-08-17T08:05:02.476Z,27.60
2022-08-17T08:07:38.951Z,27.58
2022-08-17T08:10:14.013Z,27.33
2022-08-17T08:12:44.904Z,27.71
2022-08-17T08:15:22.283Z,27.83
2022-08-17T08:17:51.983Z,27.87
2022-08-17T08:20:52.184Z,27.99
2022-08-17T08:23:12.013Z,28.25
2022-08-17T08:25:53.353Z,28.08
2022-08-17T08:28:46.397Z,27.83
2022-08-17T08:31:18.746Z,28.25
2022-08-17T08:34:03.975Z,28.15
2022-08-17T08:36:57.074Z,28.30
2022-08-17T08:39:40.431Z,28.62
2022-08-17T08:42:08.895Z,28.84
2022-08-17T08:45:16.351Z,28.91
2022-08-17T08:48:05.429Z,28.57
2022-08-17T08:50:50.365Z,28.44
2022-08-17T08:53:45.959Z,28.55
2022-08-17T08:56:31.478Z,28.20
2022-08-17T08:59:16.249Z,28.04
2022-08-17T09:01:55.782Z,28.27
2022-08-17T09:04:44.951Z,28.23
2022-08-17T09:07:37.029Z,28.63
2022-08-17T09:10:29.862Z,28.61
2022-08-17T09:13:27.666Z,28.54
2022-08-17T09:15:59.211Z,28.81
2022-08-17T09:19:02.508Z,28.71
2022-08-17T09:21:26.233Z,29.03
2022-08-17T09:24:12.767Z,28.81
2022-08-17T09:26:39.452Z,28.83
2022-08-17T09:29:11.005Z,29.01
2022-08-17T09:31:46.441Z,28.90
2022-08-17T09:34:18.276Z,28.98
2022-08-17T09:36:52.256Z,29.14
2022-08-17T09:39:41.749Z,29.22
2022-08-17T09:42:18.829Z,29.27
2022-08-17T09:44:58.403Z,29.31
2022-08-17T09:47:46.585Z,29.32
2022-08-17T09:51:05.377Z,29.46
2022-08-17T09:53:13.858Z,29.70
2022-08-17T09:55:55.344Z,29.45
2022-08-17T09:58:40.554Z,29.69
2022-08-17T10:01:36.503Z,29.79
2022-08-17T10:04:20.378Z,29.73
2022-08-17T10:06:52.843Z,29.87
2022-08-17T10:09:30.060Z,30.02
2022-08-17T10:12:20.271Z,29.80
2022-08-17T10:15:09.439Z,29.85
2022-08-17T10:17:45.195Z,30.10
2022-08-17T10:20:23.510Z,30.07
2022-08-17T10:23:13.693Z,30.07
2022-08-17T10:26:04.330Z,30.07
2022-08-17T10:28:49.076Z,29.98
2022-08-17T10:31:35.057Z,30.17
2022-08-17T10:34:30.143Z,30.56
2022-08-17T10:37:11.601Z,30.51
2022-08-17T10:40:02.585Z,30.49
2022-08-17T10:42:42.690Z,30.18
2022-08-17T10:45:28.242Z,30.32
2022-08-17T10:48:31.059Z,30.49
2022-08-17T10:51:01.399Z,30.59
2022-08-17T10:53:38.734Z,30.40
2022-08-17T10:56:13.025Z,30.51
2022-08-17T10:58:55.887Z,30.03
2022-08-17T11:01:58.314Z,30.49
2022-08-17T11:04:46.042Z,30.83
2022-08-17T11:07:25.753Z,30.64
2022-08-17T11:10:23.817Z,30.59
2022-08-17T11:12:59.287Z,30.75
2022-08-17T11:15:37.367Z,30.48
2022-08-17T11:18:22.188Z,30.52
2022-08-17T11:21:09.327Z,30.74
2022-08-17T11:24:11.376Z,30.86
2022-08-17T11:26:46.274Z,30.54
2022-08-17T11:29:24.796Z,30.75
2022-08-17T11:32:05.439Z,30.86
2022-08-17T11:34:32.414Z,31.08
2022-08-17T11:37:24.535Z,31.20
2022-08-17T11:40:03.316Z,30.83
2022-08-17T11:42:36.331Z,30.78
2022-08-17T11:45:32.403Z,31.02
2022-08-17T11:48:50.529Z,30.93
2022-08-17T11:51:33.775Z,30.99
2022-08-17T11:56:52.837Z,30.96
2022-08-17T11:59:39.632Z,31.04
2022-08-17T12:02:35.256Z,31.01
2022-08-17T12:05:02.718Z,30.90
2022-08-17T12:07:32.724Z,31.15
2022-08-17T12:10:00.127Z,31.20
2022-08-17T12:12:34.171Z,31.17
2022-08-17T12:15:12.539Z,31.10
2022-08-17T12:17:52.433Z,31.23
2022-08-17T12:20:41.009Z,31.35
2022-08-17T12:23:41.585Z,31.17
2022-08-17T12:26:19.392Z,31.26
2022-08-17T12:28:51.959Z,31.54
2022-08-17T12:31:45.785Z,31.10
2022-08-17T12:34:22.152Z,31.12
2022-08-17T12:36:50.351Z,31.21
2022-08-17T12:39:24.964Z,31.31
2022-08-17T12:41:56.342Z,31.50
2022-08-17T12:44:28.190Z,31.01
2022-08-17T12:47:07.574Z,30.73
2022-08-17T12:49:36.960Z,30.77
2022-08-17T12:52:08.430Z,30.87
2022-08-17T12:55:03.499Z,31.27
2022-08-17T12:57:38.957Z,31.16
2022-08-17T13:00:17.583Z,31.23
2022-08-17T13:02:51.565Z,31.02
2022-08-17T13:05:19.108Z,30.85
2022-08-17T13:07:46.623Z,30.58
2022-08-17T13:10:17.445Z,30.56
2022-08-17T13:12:44.058Z,30.63
2022-08-17T13:15:20.362Z,30.87
2022-08-17T13:17:56.658Z,30.87
2022-08-17T13:20:23.305Z,30.33
2022-08-17T13:22:55.476Z,29.63
2022-08-17T13:25:22.681Z,29.63
2022-08-17T13:27:51.125Z,29.96
2022-08-17T13:30:30.036Z,30.03
2022-08-17T13:32:57.447Z,30.31
2022-08-17T13:35:43.605Z,30.46
2022-08-17T13:38:34.730Z,30.41
2022-08-17T13:41:03.396Z,30.35
2022-08-17T13:43:52.343Z,30.14
2022-08-17T13:46:22.089Z,30.30
2022-08-17T13:49:01.359Z,30.35
2022-08-17T13:51:34.404Z,30.30
2022-08-17T13:54:04.702Z,30.42
2022-08-17T13:56:54.706Z,30.51
2022-08-17T13:59:54.513Z,29.94
2022-08-17T14:02:23.141Z,29.84
2022-08-17T14:04:56.202Z,29.95
2022-08-17T14:07:29.622Z,29.97
2022-08-17T14:10:10.017Z,29.88
2022-08-17T14:12:38.757Z,30.15
2022-08-17T14:15:13.225Z,30.11
2022-08-17T14:17:39.804Z,30.02
2022-08-17T14:20:09.585Z,30.07
2022-08-17T14:22:39.552Z,29.99
2022-08-17T14:25:10.410Z,29.88
2022-08-17T14:27:43.268Z,29.83
2022-08-17T14:30:22.763Z,29.75
2022-08-17T14:32:49.581Z,29.79
2022-08-17T14:35:16.359Z,29.80
2022-08-17T14:37:45.813Z,29.92
2022-08-17T14:40:15.069Z,29.78
2022-08-17T14:42:43.770Z,29.67
2022-08-17T14:45:31.972Z,29.45
2022-08-17T14:48:01.099Z,29.50
2022-08-17T14:50:27.696Z,29.06
2022-08-17T14:52:56.039Z,29.22
2022-08-17T14:55:24.967Z,28.99
2022-08-17T14:57:51.739Z,28.99
2022-08-17T15:00:18.522Z,29.14
2022-08-17T15:02:54.164Z,29.30
2022-08-17T15:05:24.542Z,29.39
2022-08-17T15:07:53.547Z,29.37
2022-08-17T15:10:20.857Z,29.35
2022-08-17T15:12:47.558Z,29.28
2022-08-17T15:15:16.260Z,29.19
2022-08-17T15:17:47.107Z,29.03
2022-08-17T15:20:19.276Z,28.96
2022-08-17T15:22:50.140Z,28.85
2022-08-17T15:25:18.910Z,28.87
2022-08-17T15:27:45.478Z,28.72
2022-08-17T15:30:12.360Z,28.50
2022-08-17T15:32:40.879Z,28.57
2022-08-17T15:35:17.780Z,28.30
2022-08-17T15:37:45.204Z,28.48
2022-08-17T15:40:12.621Z,28.24
2022-08-17T15:42:40.427Z,28.09
2022-08-17T15:45:10.933Z,28.30
2022-08-17T15:47:37.618Z,28.26
2022-08-17T15:50:06.413Z,28.25
2022-08-17T15:52:40.261Z,28.24
2022-08-17T15:55:10.764Z,28.18
2022-08-17T15:57:37.613Z,28.07
2022-08-17T16:00:06.070Z,28.25
2022-08-17T16:03:45.128Z,27.99
2022-08-17T16:05:24.814Z,28.04
2022-08-17T16:07:53.610Z,27.90
2022-08-17T16:10:21.143Z,27.56
2022-08-17T16:12:49.522Z,27.46
2022-08-17T16:15:17.172Z,27.27
2022-08-17T16:17:43.791Z,27.20
2022-08-17T16:20:20.579Z,27.15
2022-08-17T16:22:49.077Z,27.04
2022-08-17T16:25:21.814Z,26.78
2022-08-17T16:27:50.494Z,26.82
2022-08-17T16:30:18.017Z,26.96
2022-08-17T16:32:45.300Z,26.76
2022-08-17T16:35:14.360Z,26.79
2022-08-17T16:37:41.815Z,26.60
2022-08-17T16:40:12.656Z,26.59
2022-08-17T16:42:39.764Z,26.56
2022-08-17T16:45:13.072Z,26.57
2022-08-17T16:50:32.751Z,26.38
2022-08-17T16:53:10.691Z,26.17
2022-08-17T16:55:37.827Z,26.18
2022-08-17T16:58:05.346Z,26.09
2022-08-17T17:00:33.456Z,25.96
2022-08-17T17:03:20.239Z,26.06
2022-08-17T17:06:14.121Z,26.14
2022-08-17T17:08:49.668Z,26.10
2022-08-17T17:11:23.493Z,26.21
2022-08-17T17:13:58.473Z,26.09
2022-08-17T17:17:07.966Z,25.87
2022-08-17T17:19:53.804Z,26.02
2022-08-17T17:22:55.580Z,26.12
2022-08-17T17:25:32.583Z,26.30
2022-08-17T17:28:14.631Z,26.13
2022-08-17T17:30:50.118Z,26.10
2022-08-17T17:33:34.926Z,26.16
2022-08-17T17:36:38.329Z,25.95
2022-08-17T17:39:10.708Z,25.59
2022-08-17T17:41:44.612Z,25.69
2022-08-17T17:44:15.293Z,25.59
2022-08-17T17:46:50.383Z,25.66
2022-08-17T17:49:18.285Z,25.31
2022-08-17T17:52:08.065Z,25.20
2022-08-17T17:54:42.414Z,24.99
2022-08-17T17:57:25.798Z,25.08
2022-08-17T18:00:13.384Z,25.16
2022-08-17T18:02:51.933Z,25.22
2022-08-17T18:05:39.442Z,24.91
2022-08-17T18:08:38.145Z,24.62
2022-08-17T18:11:12.416Z,24.65
2022-08-17T18:14:18.560Z,24.51
2022-08-17T18:16:46.514Z,24.70
2022-08-17T18:19:22.560Z,24.88
2022-08-17T18:21:53.245Z,24.60
2022-08-17T18:24:35.854Z,24.44
2022-08-17T18:27:18.958Z,24.48
2022-08-17T18:29:55.063Z,24.64
2022-08-17T18:32:38.047Z,24.76
2022-08-17T18:35:14.279Z,24.41
2022-08-17T18:37:44.929Z,24.27
2022-08-17T18:40:35.821Z,24.20
2022-08-17T18:43:12.950Z,23.99
2022-08-17T18:48:25.675Z,24.01
2022-08-17T18:50:57.115Z,23.72
2022-08-17T18:53:34.546Z,23.81
2022-08-17T18:56:44.109Z,23.98
2022-08-17T18:59:22.689Z,24.03
2022-08-17T19:02:44.229Z,24.33
2022-08-17T19:05:13.532Z,23.98
2022-08-17T19:07:43.577Z,23.68
2022-08-17T19:10:22.190Z,23.67
2022-08-17T19:13:13.755Z,23.79
2022-08-17T19:16:12.347Z,23.80
2022-08-17T19:19:02.083Z,23.78
2022-08-17T19:21:42.161Z,23.50
2022-08-17T19:24:25.132Z,23.94
2022-08-17T19:26:56.663Z,23.71
2022-08-17T19:29:43.108Z,23.88
2022-08-17T19:32:11.015Z,23.93
2022-08-17T19:34:39.463Z,23.77
2022-08-17T19:37:09.717Z,23.98
2022-08-17T19:39:58.908Z,23.86
2022-08-17T19:42:28.127Z,23.67
2022-08-17T19:45:26.942Z,23.50
2022-08-17T19:48:48.915Z,23.83
2022-08-17T19:51:34.500Z,24.04
2022-08-17T19:54:28.504Z,24.11
2022-08-17T19:57:01.684Z,24.15
2022-08-17T19:59:56.346Z,23.85
2022-08-17T20:02:41.695Z,24.03
2022-08-17T20:06:00.952Z,23.77
2022-08-17T20:08:29.816Z,23.64
2022-08-17T20:11:19.207Z,23.75
2022-08-17T20:14:10.660Z,23.57
2022-08-17T20:16:37.671Z,23.71
2022-08-17T20:19:28.342Z,23.71
2022-08-17T20:22:00.865Z,23.52
2022-08-17T20:24:37.965Z,23.26
2022-08-17T20:27:22.449Z,23.34
2022-08-17T20:30:33.103Z,23.22
2022-08-17T20:33:01.168Z,23.43
2022-08-17T20:35:33.298Z,23.48
2022-08-17T20:38:02.149Z,23.29
2022-08-17T20:40:42.767Z,23.13
2022-08-17T20:43:33.794Z,23.41
2022-08-17T20:46:31.315Z,23.19
2022-08-17T20:49:15.030Z,23.38
2022-08-17T20:52:01.555Z,23.60
2022-08-17T20:54:50.943Z,23.54
2022-08-17T20:57:40.090Z,23.24
2022-08-17T21:00:20.457Z,23.04
2022-08-17T21:02:49.790Z,22.84
2022-08-17T21:05:34.228Z,22.82
2022-08-17T21:08:15.768Z,23.03
2022-08-17T21:10:46.133Z,22.93
2022-08-17T21:13:13.439Z,22.79
2022-08-17T21:15:56.595Z,22.78
2022-08-17T21:18:38.713Z,22.67
2022-08-17T21:21:26.555Z,22.82
2022-08-17T21:24:07.760Z,22.91
2022-08-17T21:26:56.151Z,22.74
2022-08-17T21:29:33.947Z,22.60
2022-08-17T21:32:06.801Z,22.75
2022-08-17T21:34:43.580Z,22.72
2022-08-17T21:37:29.470Z,22.63
2022-08-17T21:40:23.249Z,22.61
2022-08-17T21:42:56.150Z,22.51
2022-08-17T21:45:29.484Z,22.56
2022-08-17T21:48:15.507Z,22.38
2022-08-17T21:50:44.534Z,22.37
2022-08-17T21:53:25.382Z,22.31
2022-08-17T21:55:53.831Z,22.38
2022-08-17T21:58:39.978Z,22.40
2022-08-17T22:01:23.700Z,22.28
2022-08-17T22:04:12.055Z,22.24
2022-08-17T22:06:52.370Z,22.18
2022-08-17T22:09:29.675Z,22.27
2022-08-17T22:12:03.740Z,22.30
2022-08-17T22:14:53.065Z,22.24
2022-08-17T22:17:25.707Z,22.25
2022-08-17T22:20:07.523Z,22.32
2022-08-17T22:22:59.820Z,22.21
2022-08-17T22:25:27.639Z,22.24
2022-08-17T22:28:00.293Z,22.17
2022-08-17T22:30:30.429Z,22.33
2022-08-17T22:32:57.190Z,22.18
2022-08-17T22:35:30.428Z,22.10
2022-08-17T22:37:59.096Z,22.15
2022-08-17T22:40:32.989Z,22.17
2022-08-17T22:43:03.064Z,22.16
2022-08-17T22:45:30.465Z,22.38
2022-08-17T22:47:58.908Z,22.20
2022-08-17T22:50:28.276Z,22.23
2022-08-17T22:53:22.035Z,22.08
2022-08-17T22:56:09.956Z,21.99
2022-08-17T22:59:01.191Z,22.02
2022-08-17T23:01:31.581Z,21.77
2022-08-17T23:04:04.151Z,21.94
2022-08-17T23:06:33.901Z,21.96
2022-08-17T23:09:03.946Z,21.95
2022-08-17T23:11:48.668Z,22.07
2022-08-17T23:14:19.100Z,22.01
2022-08-17T23:16:46.739Z,22.13
2022-08-17T23:19:17.070Z,22.22
2022-08-17T23:21:47.138Z,22.16
2022-08-17T23:24:23.107Z,22.35
2022-08-17T23:26:49.788Z,22.19
2022-08-17T23:29:16.502Z,22.11
2022-08-17T23:31:45.093Z,22.08
2022-08-17T23:34:13.635Z,21.95
2022-08-17T23:36:40.152Z,22.02
2022-08-17T23:39:07.572Z,22.02
2022-08-17T23:41:37.177Z,22.10
2022-08-17T23:44:05.063Z,22.03
2022-08-17T23:46:31.611Z,21.87
2022-08-17T23:48:59.479Z,22.00
2022-08-17T23:51:46.577Z,22.07
2022-08-17T23:54:26.030Z,21.82
2022-08-17T23:56:55.155Z,22.03
2022-08-17T23:59:23.299Z,22.14
